Pagrindinis puslapis
METAR-TAF:

METAR-TAF

Oro uostai :

Nikosija, Kipras

platuma: 35-09N, ilguma: 033-30E, Aukštis: 91 m

Dabartinis oras

Ataskaita buvo paskelbta 23 minutes, ne 02:20 UTC
Vėjas 15 kt iš Vakarų
Temperatūra 17°C
Drėgmė 63%
Slėgis 1010 hPa
Matomumas 10 km arba daugiau
Išsisklaidę debesys ne aukštis 2500 ft
Išsisklaidę debesys ne aukštis 3000 ft

METAR: LCEN 010220Z 27015KT 9999 SCT025 SCT030 17/10 Q1010 NOSIG RMK RWY11 27015KT

Laikas: 04:43 (02:43 UTC)

Prognozė

Ataskaita buvo paskelbta 4 valandos ir 3 minutes, ne 22:40 UTC
Prognozė galioja nuo 01 metu 00 UTC su 01 metu 24 UTC
Vėjas 16 kt iš Vakarų
Matomumas 10 km arba daugiau
Išsisklaidę debesys ne aukštis 2500 ft
Tapsmas
nuo 01 metu 21 UTC su 01 metu 24 UTC
Vėjas 6 kt iš Vakarų

TAF: LCEN 302240Z 0100/0124 28016KT 9999 SCT025 BECMG 0121/0124 27006KT

Orai ataskaitas ir orų prognozės (METAR, TAF).

turimą stotys yra geltonos ir raudonos taškus žemėlapyje.

Perkelti pele per norėdami pamatyti stoties vardą.

Tada spustelėkite, norėdami matyti oro stebėjimo ir prognozės.

Norėdami pakeisti žemėlapį: spustelėkite ant žalios mygtukų su juodo kryžiaus žemyn,; žalią mygtuką su brūkšneliu, jei norite nutolinti; arba žalių rodyklių gretimoms žemėlapius.


METAR-TAF: